sensor_id;sensor_type;location;lat;lon;timestamp;P1;P2;P0
74436;PMS7003;62868;52.360;30.424;2023-08-24T00:00:54;0;0;0
74436;PMS7003;62868;52.360;30.424;2023-08-24T00:05:38;0;0;0
74436;PMS7003;62868;52.360;30.424;2023-08-24T00:10:45;0.3;0;0
74436;PMS7003;62868;52.360;30.424;2023-08-24T00:16:06;0;0;0
74436;PMS7003;62868;52.360;30.424;2023-08-24T00:20:28;0;0;0
74436;PMS7003;62868;52.360;30.424;2023-08-24T00:25:52;0;0;0
74436;PMS7003;62868;52.360;30.424;2023-08-24T00:30:57;0;0;0
74436;PMS7003;62868;52.360;30.424;2023-08-24T00:35:35;0;0;0
74436;PMS7003;62868;52.360;30.424;2023-08-24T00:41:06;0;0;0
74436;PMS7003;62868;52.360;30.424;2023-08-24T00:45:45;0;0;0
74436;PMS7003;62868;52.360;30.424;2023-08-24T00:50:32;0;0;0
74436;PMS7003;62868;52.360;30.424;2023-08-24T00:55:28;0;0;0
74436;PMS7003;62868;52.360;30.424;2023-08-24T01:01:06;0;0;0
74436;PMS7003;62868;52.360;30.424;2023-08-24T01:05:58;0;0;0
74436;PMS7003;62868;52.360;30.424;2023-08-24T01:10:56;0;0;0
74436;PMS7003;62868;52.360;30.424;2023-08-24T01:16:06;0;0;0
74436;PMS7003;62868;52.360;30.424;2023-08-24T01:20:58;0;0;0
74436;PMS7003;62868;52.360;30.424;2023-08-24T01:25:38;0;0;0
74436;PMS7003;62868;52.360;30.424;2023-08-24T01:30:58;0;0;0
74436;PMS7003;62868;52.360;30.424;2023-08-24T01:36:06;0.3;0;0
74436;PMS7003;62868;52.360;30.424;2023-08-24T01:40:43;0;0;0
74436;PMS7003;62868;52.360;30.424;2023-08-24T01:46:00;0;0;0
74436;PMS7003;62868;52.360;30.424;2023-08-24T01:51:06;0;0;0
74436;PMS7003;62868;52.360;30.424;2023-08-24T01:55:28;0.3;0;0
74436;PMS7003;62868;52.360;30.424;2023-08-24T02:00:38;0;0;0
74436;PMS7003;62868;52.360;30.424;2023-08-24T02:05:32;0;0;0
74436;PMS7003;62868;52.360;30.424;2023-08-24T02:10:50;0;0;0
74436;PMS7003;62868;52.360;30.424;2023-08-24T02:15:50;0;0;0
74436;PMS7003;62868;52.360;30.424;2023-08-24T02:20:58;0;0;0
74436;PMS7003;62868;52.360;30.424;2023-08-24T02:25:46;0.7;0;0
74436;PMS7003;62868;52.360;30.424;2023-08-24T02:30:50;0.3;0;0
74436;PMS7003;62868;52.360;30.424;2023-08-24T02:35:28;0;0;0
74436;PMS7003;62868;52.360;30.424;2023-08-24T02:41:06;0.3;0;0
74436;PMS7003;62868;52.360;30.424;2023-08-24T02:45:28;0.3;0.3;0
74436;PMS7003;62868;52.360;30.424;2023-08-24T02:50:50;0.3;0;0
74436;PMS7003;62868;52.360;30.424;2023-08-24T02:56:02;0.3;0;0
74436;PMS7003;62868;52.360;30.424;2023-08-24T03:00:28;0.3;0;0
74436;PMS7003;62868;52.360;30.424;2023-08-24T03:05:40;0;0;0
74436;PMS7003;62868;52.360;30.424;2023-08-24T03:11:06;0;0;0
74436;PMS7003;62868;52.360;30.424;2023-08-24T03:15:42;0;0;0
74436;PMS7003;62868;52.360;30.424;2023-08-24T03:20:28;0;0;0
74436;PMS7003;62868;52.360;30.424;2023-08-24T03:25:55;0;0;0
74436;PMS7003;62868;52.360;30.424;2023-08-24T03:31:06;0;0;0
74436;PMS7003;62868;52.360;30.424;2023-08-24T03:35:50;0.3;0;0
74436;PMS7003;62868;52.360;30.424;2023-08-24T03:40:32;0.3;0;0
74436;PMS7003;62868;52.360;30.424;2023-08-24T03:46:06;0;0;0
74436;PMS7003;62868;52.360;30.424;2023-08-24T03:50:58;0;0;0
74436;PMS7003;62868;52.360;30.424;2023-08-24T03:55:28;0.3;0.3;0.3
74436;PMS7003;62868;52.360;30.424;2023-08-24T04:00:46;0;0;0
74436;PMS7003;62868;52.360;30.424;2023-08-24T04:05:54;0;0;0
74436;PMS7003;62868;52.360;30.424;2023-08-24T04:10:58;0;0;0
74436;PMS7003;62868;52.360;30.424;2023-08-24T04:15:42;0;0;0
74436;PMS7003;62868;52.360;30.424;2023-08-24T04:21:04;0;0;0
74436;PMS7003;62868;52.360;30.424;2023-08-24T04:25:30;0;0;0
74436;PMS7003;62868;52.360;30.424;2023-08-24T04:30:38;0.3;0.3;0.3
74436;PMS7003;62868;52.360;30.424;2023-08-24T04:35:28;0;0;0
74436;PMS7003;62868;52.360;30.424;2023-08-24T04:41:07;0;0;0
74436;PMS7003;62868;52.360;30.424;2023-08-24T04:45:32;0.3;0.3;0
74436;PMS7003;62868;52.360;30.424;2023-08-24T04:50:43;0;0;0
74436;PMS7003;62868;52.360;30.424;2023-08-24T04:55:44;0;0;0
74436;PMS7003;62868;52.360;30.424;2023-08-24T05:00:30;0;0;0
74436;PMS7003;62868;52.360;30.424;2023-08-24T05:06:06;0;0;0
74436;PMS7003;62868;52.360;30.424;2023-08-24T05:10:46;0;0;0
74436;PMS7003;62868;52.360;30.424;2023-08-24T05:15:46;0;0;0
74436;PMS7003;62868;52.360;30.424;2023-08-24T05:20:28;0;0;0
74436;PMS7003;62868;52.360;30.424;2023-08-24T05:26:06;0;0;0
74436;PMS7003;62868;52.360;30.424;2023-08-24T05:30:58;0;0;0
74436;PMS7003;62868;52.360;30.424;2023-08-24T05:36:06;0;0;0
74436;PMS7003;62868;52.360;30.424;2023-08-24T05:41:06;0.3;0;0
74436;PMS7003;62868;52.360;30.424;2023-08-24T05:45:54;0;0;0
74436;PMS7003;62868;52.360;30.424;2023-08-24T05:50:42;0;0;0
74436;PMS7003;62868;52.360;30.424;2023-08-24T05:55:48;0;0;0
74436;PMS7003;62868;52.360;30.424;2023-08-24T06:01:06;0;0;0
74436;PMS7003;62868;52.360;30.424;2023-08-24T06:05:50;0;0;0
74436;PMS7003;62868;52.360;30.424;2023-08-24T06:10:36;0.3;0.3;0
74436;PMS7003;62868;52.360;30.424;2023-08-24T06:16:06;0;0;0
74436;PMS7003;62868;52.360;30.424;2023-08-24T06:20:28;0;0;0
74436;PMS7003;62868;52.360;30.424;2023-08-24T06:25:28;0;0;0
74436;PMS7003;62868;52.360;30.424;2023-08-24T06:30:42;0;0;0
74436;PMS7003;62868;52.360;30.424;2023-08-24T06:35:50;0;0;0
74436;PMS7003;62868;52.360;30.424;2023-08-24T06:40:50;0;0;0
74436;PMS7003;62868;52.360;30.424;2023-08-24T06:45:58;0.3;0.3;0
74436;PMS7003;62868;52.360;30.424;2023-08-24T06:50:42;0;0;0
74436;PMS7003;62868;52.360;30.424;2023-08-24T06:55:38;0.7;0.7;0.7
74436;PMS7003;62868;52.360;30.424;2023-08-24T07:00:38;0;0;0
74436;PMS7003;62868;52.360;30.424;2023-08-24T07:05:42;0;0;0
74436;PMS7003;62868;52.360;30.424;2023-08-24T07:10:54;0;0;0
74436;PMS7003;62868;52.360;30.424;2023-08-24T07:15:50;0;0;0
74436;PMS7003;62868;52.360;30.424;2023-08-24T07:21:06;0.3;0.3;0.3
74436;PMS7003;62868;52.360;30.424;2023-08-24T07:25:44;0;0;0
74436;PMS7003;62868;52.360;30.424;2023-08-24T07:30:28;0;0;0
74436;PMS7003;62868;52.360;30.424;2023-08-24T07:35:40;0;0;0
74436;PMS7003;62868;52.360;30.424;2023-08-24T07:40:28;0.3;0;0
74436;PMS7003;62868;52.360;30.424;2023-08-24T07:45:48;0;0;0
74436;PMS7003;62868;52.360;30.424;2023-08-24T07:50:54;0;0;0
74436;PMS7003;62868;52.360;30.424;2023-08-24T07:56:06;0;0;0
74436;PMS7003;62868;52.360;30.424;2023-08-24T08:00:50;0;0;0
74436;PMS7003;62868;52.360;30.424;2023-08-24T08:05:28;0;0;0
74436;PMS7003;62868;52.360;30.424;2023-08-24T08:10:38;0;0;0
74436;PMS7003;62868;52.360;30.424;2023-08-24T08:15:32;0;0;0
74436;PMS7003;62868;52.360;30.424;2023-08-24T08:20:59;0;0;0
74436;PMS7003;62868;52.360;30.424;2023-08-24T08:26:07;0;0;0
74436;PMS7003;62868;52.360;30.424;2023-08-24T08:30:48;0;0;0
74436;PMS7003;62868;52.360;30.424;2023-08-24T08:35:38;0;0;0
74436;PMS7003;62868;52.360;30.424;2023-08-24T08:41:06;0;0;0
74436;PMS7003;62868;52.360;30.424;2023-08-24T08:45:32;0;0;0
74436;PMS7003;62868;52.360;30.424;2023-08-24T08:50:58;0;0;0
74436;PMS7003;62868;52.360;30.424;2023-08-24T08:55:51;0;0;0
74436;PMS7003;62868;52.360;30.424;2023-08-24T09:00:50;0;0;0
74436;PMS7003;62868;52.360;30.424;2023-08-24T09:05:48;0;0;0
74436;PMS7003;62868;52.360;30.424;2023-08-24T09:10:58;0;0;0
74436;PMS7003;62868;52.360;30.424;2023-08-24T09:15:31;0;0;0
74436;PMS7003;62868;52.360;30.424;2023-08-24T09:20:36;0;0;0
74436;PMS7003;62868;52.360;30.424;2023-08-24T09:25:32;0;0;0
74436;PMS7003;62868;52.360;30.424;2023-08-24T09:30:38;0;0;0
74436;PMS7003;62868;52.360;30.424;2023-08-24T09:35:34;0;0;0
74436;PMS7003;62868;52.360;30.424;2023-08-24T09:40:50;0;0;0
74436;PMS7003;62868;52.360;30.424;2023-08-24T09:46:06;0;0;0
74436;PMS7003;62868;52.360;30.424;2023-08-24T09:50:46;0;0;0
74436;PMS7003;62868;52.360;30.424;2023-08-24T09:55:28;0;0;0
74436;PMS7003;62868;52.360;30.424;2023-08-24T10:00:50;0;0;0
74436;PMS7003;62868;52.360;30.424;2023-08-24T10:05:32;0;0;0
74436;PMS7003;62868;52.360;30.424;2023-08-24T10:10:38;0;0;0
74436;PMS7003;62868;52.360;30.424;2023-08-24T10:15:54;0;0;0
74436;PMS7003;62868;52.360;30.424;2023-08-24T10:21:06;0;0;0
74436;PMS7003;62868;52.360;30.424;2023-08-24T10:25:32;0;0;0
74436;PMS7003;62868;52.360;30.424;2023-08-24T10:30:54;0;0;0
74436;PMS7003;62868;52.360;30.424;2023-08-24T10:36:06;0;0;0
74436;PMS7003;62868;52.360;30.424;2023-08-24T10:40:42;0.3;0;0
74436;PMS7003;62868;52.360;30.424;2023-08-24T10:46:11;0;0;0
74436;PMS7003;62868;52.360;30.424;2023-08-24T10:51:30;0;0;0
74436;PMS7003;62868;52.360;30.424;2023-08-24T10:55:30;0;0;0
74436;PMS7003;62868;52.360;30.424;2023-08-24T11:00:38;0;0;0
74436;PMS7003;62868;52.360;30.424;2023-08-24T11:05:51;0;0;0
74436;PMS7003;62868;52.360;30.424;2023-08-24T11:11:06;0;0;0
74436;PMS7003;62868;52.360;30.424;2023-08-24T11:15:45;0;0;0
74436;PMS7003;62868;52.360;30.424;2023-08-24T11:20:28;0;0;0
74436;PMS7003;62868;52.360;30.424;2023-08-24T11:25:42;0;0;0
74436;PMS7003;62868;52.360;30.424;2023-08-24T11:31:06;0;0;0
74436;PMS7003;62868;52.360;30.424;2023-08-24T11:35:28;0;0;0
74436;PMS7003;62868;52.360;30.424;2023-08-24T11:41:13;0;0;0
74436;PMS7003;62868;52.360;30.424;2023-08-24T11:45:58;0;0;0
74436;PMS7003;62868;52.360;30.424;2023-08-24T11:50:54;0;0;0
74436;PMS7003;62868;52.360;30.424;2023-08-24T11:56:07;0;0;0
74436;PMS7003;62868;52.360;30.424;2023-08-24T12:00:46;0;0;0
74436;PMS7003;62868;52.360;30.424;2023-08-24T12:05:42;0;0;0
74436;PMS7003;62868;52.360;30.424;2023-08-24T12:10:41;0;0;0
74436;PMS7003;62868;52.360;30.424;2023-08-24T12:16:06;0;0;0
74436;PMS7003;62868;52.360;30.424;2023-08-24T12:21:00;0;0;0
74436;PMS7003;62868;52.360;30.424;2023-08-24T12:26:00;0;0;0
74436;PMS7003;62868;52.360;30.424;2023-08-24T12:31:07;0;0;0
74436;PMS7003;62868;52.360;30.424;2023-08-24T12:35:58;0;0;0
74436;PMS7003;62868;52.360;30.424;2023-08-24T12:40:28;0;0;0
74436;PMS7003;62868;52.360;30.424;2023-08-24T12:45:28;0;0;0
74436;PMS7003;62868;52.360;30.424;2023-08-24T12:51:06;0.3;0;0
74436;PMS7003;62868;52.360;30.424;2023-08-24T12:56:06;0;0;0
74436;PMS7003;62868;52.360;30.424;2023-08-24T13:00:54;0;0;0
74436;PMS7003;62868;52.360;30.424;2023-08-24T13:06:06;0;0;0
74436;PMS7003;62868;52.360;30.424;2023-08-24T13:10:59;0;0;0
74436;PMS7003;62868;52.360;30.424;2023-08-24T13:15:38;0;0;0
74436;PMS7003;62868;52.360;30.424;2023-08-24T13:20:58;0;0;0
74436;PMS7003;62868;52.360;30.424;2023-08-24T13:26:04;0;0;0
74436;PMS7003;62868;52.360;30.424;2023-08-24T13:30:52;0;0;0
74436;PMS7003;62868;52.360;30.424;2023-08-24T13:35:36;0;0;0
74436;PMS7003;62868;52.360;30.424;2023-08-24T13:41:04;0;0;0
74436;PMS7003;62868;52.360;30.424;2023-08-24T13:45:30;0;0;0
74436;PMS7003;62868;52.360;30.424;2023-08-24T13:50:49;0;0;0
74436;PMS7003;62868;52.360;30.424;2023-08-24T13:55:48;0;0;0
74436;PMS7003;62868;52.360;30.424;2023-08-24T14:00:54;0;0;0
74436;PMS7003;62868;52.360;30.424;2023-08-24T14:05:30;0;0;0
74436;PMS7003;62868;52.360;30.424;2023-08-24T14:10:56;0;0;0
74436;PMS7003;62868;52.360;30.424;2023-08-24T14:15:44;0;0;0
74436;PMS7003;62868;52.360;30.424;2023-08-24T14:21:02;0;0;0
74436;PMS7003;62868;52.360;30.424;2023-08-24T14:25:28;0;0;0
74436;PMS7003;62868;52.360;30.424;2023-08-24T14:30:38;0.3;0;0
74436;PMS7003;62868;52.360;30.424;2023-08-24T14:35:38;0;0;0
74436;PMS7003;62868;52.360;30.424;2023-08-24T14:40:50;0;0;0
74436;PMS7003;62868;52.360;30.424;2023-08-24T14:46:06;0;0;0
74436;PMS7003;62868;52.360;30.424;2023-08-24T14:50:42;0;0;0
74436;PMS7003;62868;52.360;30.424;2023-08-24T14:55:32;0;0;0
74436;PMS7003;62868;52.360;30.424;2023-08-24T15:00:48;0;0;0
74436;PMS7003;62868;52.360;30.424;2023-08-24T15:05:28;0;0;0
74436;PMS7003;62868;52.360;30.424;2023-08-24T15:10:28;0;0;0
74436;PMS7003;62868;52.360;30.424;2023-08-24T15:15:55;0;0;0
74436;PMS7003;62868;52.360;30.424;2023-08-24T15:20:32;0;0;0
74436;PMS7003;62868;52.360;30.424;2023-08-24T15:25:36;0;0;0
74436;PMS7003;62868;52.360;30.424;2023-08-24T15:30:28;0;0;0
74436;PMS7003;62868;52.360;30.424;2023-08-24T15:36:06;0;0;0
74436;PMS7003;62868;52.360;30.424;2023-08-24T15:40:38;0;0;0
74436;PMS7003;62868;52.360;30.424;2023-08-24T15:45:32;0;0;0
74436;PMS7003;62868;52.360;30.424;2023-08-24T15:50:32;0;0;0
74436;PMS7003;62868;52.360;30.424;2023-08-24T15:55:30;0;0;0
74436;PMS7003;62868;52.360;30.424;2023-08-24T16:00:28;0;0;0
74436;PMS7003;62868;52.360;30.424;2023-08-24T16:05:28;0;0;0
74436;PMS7003;62868;52.360;30.424;2023-08-24T16:11:06;0.3;0.3;0.3
74436;PMS7003;62868;52.360;30.424;2023-08-24T16:15:54;1;0.7;0.7
74436;PMS7003;62868;52.360;30.424;2023-08-24T16:20:39;0;0;0
74436;PMS7003;62868;52.360;30.424;2023-08-24T16:25:47;0;0;0
74436;PMS7003;62868;52.360;30.424;2023-08-24T16:31:06;0;0;0
74436;PMS7003;62868;52.360;30.424;2023-08-24T16:35:28;0;0;0
74436;PMS7003;62868;52.360;30.424;2023-08-24T16:40:42;0;0;0
74436;PMS7003;62868;52.360;30.424;2023-08-24T16:45:58;0;0;0
74436;PMS7003;62868;52.360;30.424;2023-08-24T16:50:54;0;0;0
74436;PMS7003;62868;52.360;30.424;2023-08-24T16:56:06;0;0;0
74436;PMS7003;62868;52.360;30.424;2023-08-24T17:00:28;0;0;0
74436;PMS7003;62868;52.360;30.424;2023-08-24T17:05:34;0;0;0
74436;PMS7003;62868;52.360;30.424;2023-08-24T17:10:28;0;0;0
74436;PMS7003;62868;52.360;30.424;2023-08-24T17:16:06;0;0;0
74436;PMS7003;62868;52.360;30.424;2023-08-24T17:20:58;0;0;0
74436;PMS7003;62868;52.360;30.424;2023-08-24T17:26:06;0;0;0
74436;PMS7003;62868;52.360;30.424;2023-08-24T17:31:06;0;0;0
74436;PMS7003;62868;52.360;30.424;2023-08-24T17:35:58;0;0;0
74436;PMS7003;62868;52.360;30.424;2023-08-24T17:40:32;0;0;0
74436;PMS7003;62868;52.360;30.424;2023-08-24T17:45:38;0;0;0
74436;PMS7003;62868;52.360;30.424;2023-08-24T17:51:06;0;0;0
74436;PMS7003;62868;52.360;30.424;2023-08-24T17:56:06;0;0;0
74436;PMS7003;62868;52.360;30.424;2023-08-24T18:01:06;0;0;0
74436;PMS7003;62868;52.360;30.424;2023-08-24T18:05:40;0;0;0
74436;PMS7003;62868;52.360;30.424;2023-08-24T18:11:01;0;0;0
74436;PMS7003;62868;52.360;30.424;2023-08-24T18:15:33;0.3;0;0
74436;PMS7003;62868;52.360;30.424;2023-08-24T18:21:01;0;0;0
74436;PMS7003;62868;52.360;30.424;2023-08-24T18:26:06;0.7;0;0
74436;PMS7003;62868;52.360;30.424;2023-08-24T18:30:40;0.3;0;0
74436;PMS7003;62868;52.360;30.424;2023-08-24T18:35:38;0.3;0;0
74436;PMS7003;62868;52.360;30.424;2023-08-24T18:41:06;0;0;0
74436;PMS7003;62868;52.360;30.424;2023-08-24T18:45:32;0;0;0
74436;PMS7003;62868;52.360;30.424;2023-08-24T18:50:32;0;0;0
74436;PMS7003;62868;52.360;30.424;2023-08-24T18:55:32;0;0;0
74436;PMS7003;62868;52.360;30.424;2023-08-24T19:00:44;0;0;0
74436;PMS7003;62868;52.360;30.424;2023-08-24T19:05:52;0;0;0
74436;PMS7003;62868;52.360;30.424;2023-08-24T19:11:00;0;0;0
74436;PMS7003;62868;52.360;30.424;2023-08-24T19:15:48;0;0;0
74436;PMS7003;62868;52.360;30.424;2023-08-24T19:20:28;0;0;0
74436;PMS7003;62868;52.360;30.424;2023-08-24T19:25:52;0;0;0
74436;PMS7003;62868;52.360;30.424;2023-08-24T19:30:44;0;0;0
74436;PMS7003;62868;52.360;30.424;2023-08-24T19:35:40;0;0;0
74436;PMS7003;62868;52.360;30.424;2023-08-24T19:40:54;0;0;0
74436;PMS7003;62868;52.360;30.424;2023-08-24T19:46:08;0;0;0
74436;PMS7003;62868;52.360;30.424;2023-08-24T19:50:44;0;0;0
74436;PMS7003;62868;52.360;30.424;2023-08-24T19:55:56;0;0;0
74436;PMS7003;62868;52.360;30.424;2023-08-24T20:01:08;0;0;0
74436;PMS7003;62868;52.360;30.424;2023-08-24T20:05:45;0;0;0
74436;PMS7003;62868;52.360;30.424;2023-08-24T20:10:40;0;0;0
74436;PMS7003;62868;52.360;30.424;2023-08-24T20:15:34;0;0;0
74436;PMS7003;62868;52.360;30.424;2023-08-24T20:20:56;0;0;0
74436;PMS7003;62868;52.360;30.424;2023-08-24T20:25:50;0;0;0
74436;PMS7003;62868;52.360;30.424;2023-08-24T20:30:28;0.3;0.3;0.3
74436;PMS7003;62868;52.360;30.424;2023-08-24T20:36:08;0;0;0
74436;PMS7003;62868;52.360;30.424;2023-08-24T20:40:30;0;0;0
74436;PMS7003;62868;52.360;30.424;2023-08-24T20:45:40;0.3;0;0
74436;PMS7003;62868;52.360;30.424;2023-08-24T20:50:28;0;0;0
74436;PMS7003;62868;52.360;30.424;2023-08-24T20:56:08;3.3;2.3;1.7
74436;PMS7003;62868;52.360;30.424;2023-08-24T21:00:34;1.7;1;0.7
74436;PMS7003;62868;52.360;30.424;2023-08-24T21:06:00;0.3;0.3;0.3
74436;PMS7003;62868;52.360;30.424;2023-08-24T21:10:40;0;0;0
74436;PMS7003;62868;52.360;30.424;2023-08-24T21:15:57;0;0;0
74436;PMS7003;62868;52.360;30.424;2023-08-24T21:21:08;0;0;0
74436;PMS7003;62868;52.360;30.424;2023-08-24T21:25:56;0;0;0
74436;PMS7003;62868;52.360;30.424;2023-08-24T21:30:48;0;0;0
74436;PMS7003;62868;52.360;30.424;2023-08-24T21:35:34;0;0;0
74436;PMS7003;62868;52.360;30.424;2023-08-24T21:41:00;0;0;0
74436;PMS7003;62868;52.360;30.424;2023-08-24T21:45:53;0;0;0
74436;PMS7003;62868;52.360;30.424;2023-08-24T21:50:57;0;0;0
74436;PMS7003;62868;52.360;30.424;2023-08-24T21:56:08;0;0;0
74436;PMS7003;62868;52.360;30.424;2023-08-24T22:01:00;0;0;0
74436;PMS7003;62868;52.360;30.424;2023-08-24T22:05:42;0;0;0
74436;PMS7003;62868;52.360;30.424;2023-08-24T22:10:34;0;0;0
74436;PMS7003;62868;52.360;30.424;2023-08-24T22:16:08;0;0;0
74436;PMS7003;62868;52.360;30.424;2023-08-24T22:21:08;0;0;0
74436;PMS7003;62868;52.360;30.424;2023-08-24T22:26:08;0;0;0
74436;PMS7003;62868;52.360;30.424;2023-08-24T22:31:08;0;0;0
74436;PMS7003;62868;52.360;30.424;2023-08-24T22:36:08;0;0;0
74436;PMS7003;62868;52.360;30.424;2023-08-24T22:40:44;1;1;0.8
74436;PMS7003;62868;52.360;30.424;2023-08-24T22:46:00;5;4.3;3.7
74436;PMS7003;62868;52.360;30.424;2023-08-24T22:51:08;4.7;4.3;3.3
74436;PMS7003;62868;52.360;30.424;2023-08-24T22:55:50;5.3;5;4.3
74436;PMS7003;62868;52.360;30.424;2023-08-24T23:00:40;3;3;2.3
74436;PMS7003;62868;52.360;30.424;2023-08-24T23:06:11;1;1;1
74436;PMS7003;62868;52.360;30.424;2023-08-24T23:10:34;1.7;1;1
74436;PMS7003;62868;52.360;30.424;2023-08-24T23:15:34;0.7;0.3;0.3
74436;PMS7003;62868;52.360;30.424;2023-08-24T23:20:28;0.3;0.3;0
74436;PMS7003;62868;52.360;30.424;2023-08-24T23:25:52;0.3;0;0
74436;PMS7003;62868;52.360;30.424;2023-08-24T23:30:37;0;0;0
74436;PMS7003;62868;52.360;30.424;2023-08-24T23:36:00;0;0;0
74436;PMS7003;62868;52.360;30.424;2023-08-24T23:40:42;0;0;0
74436;PMS7003;62868;52.360;30.424;2023-08-24T23:45:28;0;0;0
74436;PMS7003;62868;52.360;30.424;2023-08-24T23:50:44;0;0;0
74436;PMS7003;62868;52.360;30.424;2023-08-24T23:55:28;0;0;0
